FIN1077 EFHK-EVRA
Flight info
| Callsign | FIN1077 |
|---|---|
| Flight time | 0h 40m |
| Altitude | 32000 |
| Route | KOIVU Y123 LARTI DCT LUTAL |
| Aircraft | A320/M-SDE3FGHIRWY/LB1 |
Departure
| Time | 2026-04-23 17:16 |
|---|---|
| Airport | Helsinki Vantaa Airport (EFHK) |
Arrival
| Time | 2026-04-23 17:56 |
|---|---|
| Airport | Riga International Airport (EVRA) |
| Time | Latitude | Longitude | Altitude | Speed | Heading |
|---|---|---|---|---|---|
| 2026-04-23 16:34 | 60.31557 | 24.97324 | 167 ft | 0 kts | 243° |
| 2026-04-23 16:59 | 60.31559 | 24.97332 | 167 ft | 4 kts | 243° |
| 2026-04-23 16:59 | 60.31573 | 24.97392 | 167 ft | 4 kts | 250° |
| 2026-04-23 16:59 | 60.31578 | 24.97429 | 165 ft | 2 kts | 289° |
| 2026-04-23 17:00 | 60.31572 | 24.97451 | 164 ft | 2 kts | 322° |
| 2026-04-23 17:00 | 60.31562 | 24.97464 | 164 ft | 2 kts | 330° |
| 2026-04-23 17:00 | 60.31553 | 24.97475 | 163 ft | 2 kts | 333° |
| 2026-04-23 17:00 | 60.31545 | 24.97482 | 162 ft | 0 kts | 333° |
| 2026-04-23 17:03 | 60.31546 | 24.97482 | 162 ft | 1 kts | 333° |
| 2026-04-23 17:03 | 60.31569 | 24.97458 | 163 ft | 4 kts | 332° |
| 2026-04-23 17:04 | 60.31590 | 24.97436 | 164 ft | 2 kts | 333° |
| 2026-04-23 17:04 | 60.31595 | 24.97430 | 164 ft | 1 kts | 333° |
| 2026-04-23 17:04 | 60.31596 | 24.97429 | 165 ft | 0 kts | 333° |
| 2026-04-23 17:04 | 60.31602 | 24.97424 | 165 ft | 5 kts | 333° |
| 2026-04-23 17:05 | 60.31664 | 24.97360 | 166 ft | 12 kts | 333° |
| 2026-04-23 17:05 | 60.31755 | 24.97265 | 166 ft | 16 kts | 333° |
| 2026-04-23 17:05 | 60.31854 | 24.97164 | 166 ft | 11 kts | 333° |
| 2026-04-23 17:05 | 60.31912 | 24.97105 | 166 ft | 7 kts | 333° |
| 2026-04-23 17:06 | 60.31949 | 24.97066 | 166 ft | 6 kts | 333° |
| 2026-04-23 17:06 | 60.31986 | 24.97029 | 166 ft | 7 kts | 333° |
| 2026-04-23 17:06 | 60.32042 | 24.96970 | 166 ft | 11 kts | 333° |
| 2026-04-23 17:06 | 60.32117 | 24.96885 | 167 ft | 14 kts | 329° |
| 2026-04-23 17:07 | 60.32194 | 24.96794 | 166 ft | 10 kts | 329° |
| 2026-04-23 17:07 | 60.32245 | 24.96731 | 166 ft | 9 kts | 321° |
| 2026-04-23 17:07 | 60.32233 | 24.96629 | 168 ft | 9 kts | 228° |
| 2026-04-23 17:07 | 60.32177 | 24.96505 | 168 ft | 14 kts | 227° |
| 2026-04-23 17:08 | 60.32115 | 24.96370 | 168 ft | 13 kts | 227° |
| 2026-04-23 17:08 | 60.32044 | 24.96211 | 168 ft | 17 kts | 227° |
| 2026-04-23 17:08 | 60.31961 | 24.96027 | 170 ft | 19 kts | 228° |
| 2026-04-23 17:08 | 60.31864 | 24.95815 | 169 ft | 22 kts | 227° |
| 2026-04-23 17:09 | 60.31766 | 24.95601 | 170 ft | 21 kts | 227° |
| 2026-04-23 17:09 | 60.31680 | 24.95409 | 171 ft | 17 kts | 227° |
| 2026-04-23 17:09 | 60.31595 | 24.95222 | 170 ft | 19 kts | 227° |
| 2026-04-23 17:09 | 60.31499 | 24.95014 | 169 ft | 22 kts | 228° |
| 2026-04-23 17:10 | 60.31382 | 24.94758 | 164 ft | 28 kts | 228° |
| 2026-04-23 17:10 | 60.31250 | 24.94462 | 159 ft | 24 kts | 227° |
| 2026-04-23 17:10 | 60.31153 | 24.94249 | 158 ft | 21 kts | 227° |
| 2026-04-23 17:10 | 60.31089 | 24.94108 | 157 ft | 12 kts | 227° |
| 2026-04-23 17:11 | 60.31037 | 24.93973 | 159 ft | 12 kts | 249° |
| 2026-04-23 17:11 | 60.31041 | 24.93849 | 159 ft | 3 kts | 291° |
| 2026-04-23 17:11 | 60.31043 | 24.93841 | 159 ft | 0 kts | 293° |
| 2026-04-23 17:12 | 60.31049 | 24.93817 | 159 ft | 8 kts | 297° |
| 2026-04-23 17:12 | 60.31096 | 24.93723 | 158 ft | 12 kts | 327° |
| 2026-04-23 17:13 | 60.31168 | 24.93719 | 158 ft | 10 kts | 44° |
| 2026-04-23 17:13 | 60.31187 | 24.93761 | 159 ft | 0 kts | 49° |
| 2026-04-23 17:15 | 60.31208 | 24.93811 | 159 ft | 15 kts | 48° |
| 2026-04-23 17:15 | 60.31437 | 24.94311 | 162 ft | 99 kts | 47° |
| 2026-04-23 17:15 | 60.32117 | 24.95816 | 198 ft | 184 kts | 44° |
| 2026-04-23 17:16 | 60.32977 | 24.97730 | 1376 ft | 184 kts | 42° |
| 2026-04-23 17:16 | 60.33888 | 24.99717 | 2170 ft | 204 kts | 40° |
| 2026-04-23 17:16 | 60.34924 | 25.01932 | 2754 ft | 227 kts | 40° |
| 2026-04-23 17:16 | 60.36047 | 25.04367 | 3617 ft | 245 kts | 41° |
| 2026-04-23 17:17 | 60.37204 | 25.06911 | 4850 ft | 247 kts | 42° |
| 2026-04-23 17:17 | 60.38257 | 25.09611 | 6036 ft | 255 kts | 54° |
| 2026-04-23 17:17 | 60.38731 | 25.11898 | 6750 ft | 266 kts | 68° |
| 2026-04-23 17:17 | 60.38775 | 25.17079 | 8190 ft | 291 kts | 96° |
| 2026-04-23 17:18 | 60.37002 | 25.24806 | 10239 ft | 310 kts | 108° |
| 2026-04-23 17:18 | 60.36018 | 25.28764 | 10975 ft | 327 kts | 113° |
| 2026-04-23 17:18 | 60.34394 | 25.32337 | 11377 ft | 367 kts | 142° |
| 2026-04-23 17:19 | 60.32017 | 25.34275 | 12036 ft | 385 kts | 171° |
| 2026-04-23 17:19 | 60.29337 | 25.34041 | 12836 ft | 387 kts | 199° |
| 2026-04-23 17:19 | 60.26936 | 25.31763 | 13678 ft | 382 kts | 219° |
| 2026-04-23 17:19 | 60.24767 | 25.28672 | 14433 ft | 383 kts | 226° |
| 2026-04-23 17:20 | 60.22700 | 25.25253 | 15159 ft | 387 kts | 229° |
| 2026-04-23 17:20 | 60.18540 | 25.18096 | 16586 ft | 400 kts | 229° |
| 2026-04-23 17:21 | 60.14105 | 25.10972 | 17993 ft | 416 kts | 226° |
| 2026-04-23 17:21 | 60.11783 | 25.07432 | 18615 ft | 422 kts | 225° |
| 2026-04-23 17:21 | 60.07017 | 25.00321 | 19942 ft | 431 kts | 225° |
| 2026-04-23 17:22 | 60.04605 | 24.96731 | 20609 ft | 435 kts | 225° |
| 2026-04-23 17:22 | 59.99726 | 24.89404 | 21960 ft | 442 kts | 226° |
| 2026-04-23 17:23 | 59.95521 | 24.83054 | 23072 ft | 449 kts | 226° |
| 2026-04-23 17:23 | 59.93016 | 24.79275 | 23670 ft | 453 kts | 225° |
| 2026-04-23 17:23 | 59.87936 | 24.71661 | 24699 ft | 461 kts | 224° |
| 2026-04-23 17:24 | 59.85192 | 24.68206 | 25187 ft | 474 kts | 214° |
| 2026-04-23 17:24 | 59.82123 | 24.65576 | 25666 ft | 486 kts | 203° |
| 2026-04-23 17:24 | 59.75515 | 24.62305 | 26605 ft | 497 kts | 197° |
| 2026-04-23 17:25 | 59.68760 | 24.59100 | 27513 ft | 503 kts | 197° |
| 2026-04-23 17:25 | 59.65327 | 24.57550 | 27960 ft | 507 kts | 195° |
| 2026-04-23 17:26 | 59.58368 | 24.54714 | 28826 ft | 514 kts | 194° |
| 2026-04-23 17:26 | 59.51297 | 24.52037 | 29650 ft | 521 kts | 193° |
| 2026-04-23 17:27 | 59.44139 | 24.49303 | 30364 ft | 526 kts | 194° |
| 2026-04-23 17:27 | 59.40543 | 24.47898 | 30703 ft | 529 kts | 194° |
| 2026-04-23 17:27 | 59.36932 | 24.46476 | 31039 ft | 531 kts | 194° |
| 2026-04-23 17:27 | 59.33301 | 24.45043 | 31369 ft | 533 kts | 194° |
| 2026-04-23 17:28 | 59.29659 | 24.43610 | 31678 ft | 535 kts | 194° |
| 2026-04-23 17:28 | 59.26001 | 24.42179 | 31864 ft | 535 kts | 194° |
| 2026-04-23 17:28 | 59.18662 | 24.39334 | 31893 ft | 545 kts | 193° |
| 2026-04-23 17:29 | 59.11150 | 24.36449 | 31892 ft | 553 kts | 193° |
| 2026-04-23 17:30 | 59.01085 | 24.32607 | 31893 ft | 554 kts | 193° |
| 2026-04-23 17:30 | 58.88463 | 24.27805 | 31897 ft | 554 kts | 193° |
| 2026-04-23 17:31 | 58.80951 | 24.24961 | 31898 ft | 553 kts | 193° |
| 2026-04-23 17:31 | 58.73406 | 24.22095 | 31894 ft | 553 kts | 193° |
| 2026-04-23 17:32 | 58.65854 | 24.19289 | 31895 ft | 553 kts | 193° |
| 2026-04-23 17:32 | 58.58292 | 24.16460 | 31895 ft | 553 kts | 193° |
| 2026-04-23 17:33 | 58.50742 | 24.13638 | 31895 ft | 553 kts | 193° |
| 2026-04-23 17:33 | 58.43185 | 24.10880 | 31893 ft | 553 kts | 193° |
| 2026-04-23 17:34 | 58.35627 | 24.08105 | 31897 ft | 553 kts | 193° |
| 2026-04-23 17:35 | 58.24299 | 24.03875 | 31898 ft | 553 kts | 193° |
| 2026-04-23 17:35 | 58.12951 | 23.99768 | 31915 ft | 554 kts | 192° |
| 2026-04-23 17:36 | 58.05383 | 23.97039 | 31661 ft | 548 kts | 193° |
| 2026-04-23 17:36 | 58.01702 | 23.95713 | 31440 ft | 530 kts | 193° |
| 2026-04-23 17:36 | 57.98132 | 23.94427 | 31159 ft | 516 kts | 193° |
| 2026-04-23 17:37 | 57.94683 | 23.93186 | 30656 ft | 509 kts | 192° |
| 2026-04-23 17:37 | 57.91143 | 23.92620 | 29670 ft | 514 kts | 176° |
| 2026-04-23 17:37 | 57.84412 | 23.95983 | 28671 ft | 490 kts | 152° |
| 2026-04-23 17:38 | 57.81303 | 23.98469 | 28151 ft | 483 kts | 152° |
| 2026-04-23 17:38 | 57.78229 | 24.00935 | 27590 ft | 478 kts | 152° |
| 2026-04-23 17:38 | 57.75184 | 24.03391 | 27035 ft | 474 kts | 152° |
| 2026-04-23 17:38 | 57.72167 | 24.05820 | 26519 ft | 470 kts | 154° |
| 2026-04-23 17:39 | 57.69020 | 24.07409 | 26134 ft | 468 kts | 172° |
| 2026-04-23 17:39 | 57.65795 | 24.07311 | 25687 ft | 462 kts | 192° |
| 2026-04-23 17:39 | 57.62778 | 24.05554 | 25213 ft | 449 kts | 212° |
| 2026-04-23 17:39 | 57.60254 | 24.02356 | 24737 ft | 430 kts | 232° |
| 2026-04-23 17:40 | 57.58282 | 23.98290 | 24235 ft | 419 kts | 239° |
| 2026-04-23 17:40 | 57.56423 | 23.94127 | 23736 ft | 416 kts | 239° |
| 2026-04-23 17:40 | 57.54590 | 23.89991 | 23234 ft | 413 kts | 239° |
| 2026-04-23 17:40 | 57.52771 | 23.85870 | 22697 ft | 410 kts | 239° |
| 2026-04-23 17:41 | 57.50975 | 23.81795 | 22201 ft | 406 kts | 239° |
| 2026-04-23 17:41 | 57.46771 | 23.74946 | 21582 ft | 410 kts | 210° |
| 2026-04-23 17:41 | 57.44041 | 23.73393 | 21180 ft | 413 kts | 189° |
| 2026-04-23 17:42 | 57.38458 | 23.74816 | 20314 ft | 404 kts | 160° |
| 2026-04-23 17:42 | 57.35788 | 23.76312 | 19703 ft | 397 kts | 160° |
| 2026-04-23 17:42 | 57.33160 | 23.77792 | 19120 ft | 393 kts | 161° |
| 2026-04-23 17:43 | 57.30560 | 23.79253 | 18547 ft | 388 kts | 161° |
| 2026-04-23 17:43 | 57.27991 | 23.80693 | 17958 ft | 384 kts | 161° |
| 2026-04-23 17:43 | 57.25449 | 23.82114 | 17315 ft | 380 kts | 161° |
| 2026-04-23 17:43 | 57.22933 | 23.83519 | 16682 ft | 375 kts | 161° |
| 2026-04-23 17:44 | 57.20746 | 23.84735 | 16134 ft | 371 kts | 161° |
| 2026-04-23 17:44 | 57.18284 | 23.86098 | 15536 ft | 367 kts | 161° |
| 2026-04-23 17:44 | 57.13477 | 23.88749 | 14360 ft | 359 kts | 161° |
| 2026-04-23 17:45 | 57.11097 | 23.90060 | 13787 ft | 355 kts | 161° |
| 2026-04-23 17:45 | 57.06395 | 23.92649 | 12357 ft | 357 kts | 162° |
| 2026-04-23 17:45 | 57.03999 | 23.93964 | 11765 ft | 360 kts | 162° |
| 2026-04-23 17:46 | 57.00048 | 23.96122 | 10996 ft | 359 kts | 162° |
| 2026-04-23 17:46 | 56.97690 | 23.97412 | 10768 ft | 349 kts | 162° |
| 2026-04-23 17:46 | 56.95377 | 23.98676 | 10457 ft | 343 kts | 162° |
| 2026-04-23 17:47 | 56.93142 | 23.99895 | 10242 ft | 328 kts | 162° |
| 2026-04-23 17:47 | 56.90990 | 24.01064 | 9824 ft | 316 kts | 162° |
| 2026-04-23 17:47 | 56.86914 | 24.03275 | 8916 ft | 296 kts | 162° |
| 2026-04-23 17:48 | 56.84950 | 24.04343 | 8299 ft | 293 kts | 162° |
| 2026-04-23 17:48 | 56.83003 | 24.05401 | 7656 ft | 292 kts | 163° |
| 2026-04-23 17:48 | 56.81085 | 24.06440 | 7185 ft | 283 kts | 163° |
| 2026-04-23 17:48 | 56.79222 | 24.07449 | 6731 ft | 275 kts | 163° |
| 2026-04-23 17:49 | 56.77410 | 24.08380 | 6276 ft | 266 kts | 170° |
| 2026-04-23 17:49 | 56.75577 | 24.08420 | 5578 ft | 264 kts | 195° |
| 2026-04-23 17:49 | 56.73898 | 24.07191 | 4884 ft | 259 kts | 218° |
| 2026-04-23 17:49 | 56.72625 | 24.04968 | 4271 ft | 248 kts | 241° |
| 2026-04-23 17:50 | 56.71894 | 24.02243 | 3738 ft | 233 kts | 263° |
| 2026-04-23 17:50 | 56.72299 | 23.97370 | 3573 ft | 170 kts | 308° |
| 2026-04-23 17:50 | 56.73015 | 23.95825 | 3536 ft | 154 kts | 324° |
| 2026-04-23 17:51 | 56.73908 | 23.94812 | 3421 ft | 150 kts | 339° |
| 2026-04-23 17:51 | 56.74909 | 23.94351 | 3259 ft | 148 kts | 354° |
| 2026-04-23 17:51 | 56.76964 | 23.94591 | 2880 ft | 146 kts | 2° |
| 2026-04-23 17:52 | 56.77947 | 23.94752 | 2669 ft | 139 kts | 2° |
| 2026-04-23 17:52 | 56.79848 | 23.95063 | 2294 ft | 136 kts | 2° |
| 2026-04-23 17:52 | 56.80790 | 23.95217 | 2081 ft | 136 kts | 1° |
| 2026-04-23 17:53 | 56.82652 | 23.95523 | 1711 ft | 127 kts | 1° |
| 2026-04-23 17:53 | 56.83513 | 23.95665 | 1524 ft | 122 kts | 0° |
| 2026-04-23 17:53 | 56.84347 | 23.95805 | 1348 ft | 119 kts | 0° |
| 2026-04-23 17:54 | 56.85161 | 23.95938 | 1174 ft | 118 kts | 0° |
| 2026-04-23 17:54 | 56.85979 | 23.96064 | 1007 ft | 118 kts | 0° |
| 2026-04-23 17:54 | 56.87628 | 23.96333 | 637 ft | 119 kts | 1° |
| 2026-04-23 17:55 | 56.89278 | 23.96594 | 360 ft | 120 kts | 0° |
| 2026-04-23 17:55 | 56.90106 | 23.96741 | 195 ft | 120 kts | 1° |
| 2026-04-23 17:55 | 56.90920 | 23.96875 | 45 ft | 110 kts | 1° |
| 2026-04-23 17:56 | 56.91593 | 23.96984 | 45 ft | 80 kts | 5° |
| 2026-04-23 17:56 | 56.92340 | 23.97137 | 45 ft | 42 kts | 15° |
| 2026-04-23 17:56 | 56.92540 | 23.97347 | 43 ft | 12 kts | 36° |
| 2026-04-23 17:57 | 56.92604 | 23.97433 | 42 ft | 12 kts | 43° |
| 2026-04-23 17:57 | 56.92587 | 23.97543 | 44 ft | 10 kts | 175° |
| 2026-04-23 17:57 | 56.92436 | 23.97520 | 44 ft | 12 kts | 186° |
| 2026-04-23 17:58 | 56.92370 | 23.97516 | 44 ft | 8 kts | 156° |
| 2026-04-23 17:58 | 56.92349 | 23.97602 | 43 ft | 7 kts | 133° |
| 2026-04-23 17:58 | 56.92311 | 23.97606 | 44 ft | 4 kts | 184° |
| 2026-04-23 17:58 | 56.92294 | 23.97604 | 44 ft | 2 kts | 184° |
| 2026-04-23 17:59 | 56.92291 | 23.97603 | 44 ft | 0 kts | 184° |